EVLA/LPX METAR and TAF weather

Enter ICAO airport designator
Station Type Date Time Source
EVLA METAR 2019/02/23 02:20 UTC NOAA

EVLA 230220Z AUTO 23012KT 9999 OVC130/// M01/M05 Q1042


Station Type Date Time Source
EVLA Decoded METAR 2019/02/23 02:20 UTC NOAA

Liepaja International Airport, Latvia (EVLA) 56-31N 021-05E
Feb 22, 2019 - 09:20 PM EST / 2019.02.23 0220 UTC
Wind: from the SW (230 degrees) at 14 MPH (12 KT):0
Visibility: greater than 7 mile(s):0
Sky conditions: overcast
Temperature: 30 F (-1 C)
Windchill: 19 F (-7 C):1
Dew Point: 23 F (-5 C)
Relative Humidity: 74%
Pressure (altimeter): 30.77 in. Hg (1042 hPa)
ob: EVLA 230220Z AUTO 23012KT 9999 OVC130/// M01/M05 Q1042
cycle: 2

Station Type Date Time Source
EVLA TAF 2019/02/23 03:06 UTC NOAA

TAF TAF EVLA 230203Z 2303/2403 VRB02KT CAVOK
BECMG 2304/2306 24012KT BKN040
TEMPO 2306/2315 25015G28KT PROB40
TEMPO 2306/2309 4000 -SNRA
TEMPO 2315/2403 BKN010 OVC020


Example: see airport list